Time;durP1;ratioP1;P1;durP2;ratioP2;P2;SDS_P1;SDS_P2;PMS_P1;PMS_P2;Temp;Humidity;BMP_temperature;BMP_pressure;BME280_temperature;BME280_humidity;BME280_pressure;Samples;Min_cycle;Max_cycle;Signal;HPM_P1;HPM_P2
2022/11/24 00:01:29;;;;;;;11.50;2.40;;;7.50;99.90;;;8.01;100.00;97286.00;4991392;28;20469;-82
2022/11/24 00:04:01;;;;;;;14.00;2.43;;;7.40;99.90;;;7.95;100.00;97284.16;4991784;28;20899;-82
2022/11/24 00:06:33;;;;;;;7.30;1.77;;;7.30;99.90;;;7.94;100.00;97292.16;4987261;28;21005;-82
2022/11/24 00:09:04;;;;;;;4.77;2.23;;;7.30;99.90;;;7.92;100.00;97297.53;4995777;28;20502;-82
2022/11/24 00:11:34;;;;;;;15.77;2.83;;;7.30;99.90;;;7.85;100.00;97288.88;4993342;28;20582;-82
2022/11/24 00:14:08;;;;;;;19.03;2.73;;;7.20;99.90;;;7.82;100.00;97293.66;4992316;28;20468;-82
2022/11/24 00:16:38;;;;;;;7.40;2.30;;;7.20;99.90;;;7.80;100.00;97296.47;4992746;28;21106;-82
2022/11/24 00:19:09;;;;;;;15.77;3.17;;;7.20;99.90;;;7.78;100.00;97302.81;4994898;28;20456;-82
2022/11/24 00:21:42;;;;;;;12.80;2.47;;;7.20;99.90;;;7.78;100.00;97308.03;4995483;28;20470;-83
2022/11/24 00:24:13;;;;;;;11.40;2.70;;;7.20;99.90;;;7.77;100.00;97303.84;4999497;28;21024;-82
2022/11/24 00:26:42;;;;;;;9.33;2.67;;;7.10;99.90;;;7.77;100.00;97302.03;4993255;28;20472;-82
2022/11/24 00:29:12;;;;;;;7.30;2.23;;;7.10;99.90;;;7.76;100.00;97304.81;4996081;28;20484;-82
2022/11/24 00:31:43;;;;;;;8.77;2.23;;;7.10;99.90;;;7.78;100.00;97297.63;4997509;28;20554;-82
2022/11/24 00:34:14;;;;;;;7.70;2.70;;;7.10;99.90;;;7.80;100.00;97300.84;4994089;28;20553;-83
2022/11/24 00:36:43;;;;;;;6.17;2.30;;;7.20;99.90;;;7.78;100.00;97300.22;4995571;28;20472;-82
2022/11/24 00:39:15;;;;;;;18.77;2.70;;;7.10;99.90;;;7.77;100.00;97316.84;5000313;28;20491;-83
2022/11/24 00:41:46;;;;;;;11.97;2.57;;;7.10;99.90;;;7.79;100.00;97314.84;4997799;28;20463;-82
2022/11/24 00:44:17;;;;;;;16.80;3.70;;;7.20;99.90;;;7.82;100.00;97315.28;4993601;28;20468;-83
2022/11/24 00:46:47;;;;;;;5.73;2.30;;;7.30;99.90;;;7.83;100.00;97316.09;4998079;28;20459;-83
2022/11/24 00:49:17;;;;;;;10.87;2.57;;;7.30;99.90;;;7.86;100.00;97313.09;4996478;28;20479;-82
2022/11/24 00:51:46;;;;;;;14.83;3.00;;;7.30;99.90;;;7.89;100.00;97312.72;4992832;28;20471;-83
2022/11/24 00:54:15;;;;;;;13.90;2.20;;;7.40;99.90;;;7.91;100.00;97313.34;4996574;28;20470;-82
2022/11/24 00:56:45;;;;;;;21.00;3.40;;;7.40;99.90;;;7.91;100.00;97318.56;4998483;28;20533;-82
2022/11/24 00:59:15;;;;;;;11.17;2.60;;;7.40;99.90;;;7.91;100.00;97321.16;4994856;28;20559;-82
2022/11/24 01:01:45;;;;;;;14.57;2.30;;;7.40;99.90;;;7.89;100.00;97320.53;4995683;28;20487;-83
2022/11/24 01:04:14;;;;;;;21.33;3.07;;;7.40;99.90;;;7.92;100.00;97325.38;4993516;28;20516;-83
2022/11/24 01:06:44;;;;;;;14.57;2.60;;;7.40;99.90;;;7.93;100.00;97326.97;4997568;28;20891;-83
2022/11/24 01:09:13;;;;;;;18.67;2.23;;;7.50;99.90;;;7.92;100.00;97326.16;4997528;28;21183;-83
2022/11/24 01:14:32;;;;;;;15.13;2.70;;;7.50;99.90;;;7.92;100.00;97335.78;4996287;28;20460;-83
2022/11/24 01:17:03;;;;;;;21.80;2.83;;;7.50;99.90;;;7.92;100.00;97335.78;4996901;28;20471;-83
2022/11/24 01:19:32;;;;;;;17.83;2.97;;;7.40;99.90;;;7.92;100.00;97335.78;4993037;28;21068;-83
2022/11/24 01:22:02;;;;;;;19.60;2.67;;;7.40;99.90;;;7.93;100.00;97337.41;4994875;28;20581;-83
2022/11/24 01:24:32;;;;;;;10.07;2.30;;;7.40;99.90;;;7.95;100.00;97344.00;4996480;28;20546;-83
2022/11/24 01:27:02;;;;;;;11.57;3.20;;;7.50;99.90;;;7.96;100.00;97352.63;4996070;28;20886;-83
2022/11/24 01:29:35;;;;;;;13.90;3.43;;;7.50;99.90;;;7.95;100.00;97356.22;4992474;28;20527;-83
2022/11/24 01:32:06;;;;;;;16.90;3.90;;;7.50;99.90;;;7.97;100.00;97346.44;4991785;28;20471;-82
2022/11/24 01:34:36;;;;;;;31.43;2.67;;;7.50;99.90;;;7.98;100.00;97350.66;4995396;28;20472;-82
2022/11/24 01:37:05;;;;;;;15.40;3.60;;;7.50;99.90;;;8.01;100.00;97342.47;4992311;28;21477;-83
2022/11/24 01:39:34;;;;;;;14.87;3.40;;;7.50;99.90;;;8.03;100.00;97346.50;4992250;28;21053;-82
2022/11/24 01:42:03;;;;;;;12.60;3.60;;;7.60;99.90;;;8.08;100.00;97351.16;4991176;28;20460;-83
2022/11/24 01:44:34;;;;;;;8.17;2.70;;;7.60;99.90;;;8.09;100.00;97357.94;4992635;28;20554;-83
2022/11/24 01:47:29;;;;;;;8.30;2.40;;;7.60;99.90;;;8.13;100.00;97348.75;4992104;28;20539;-83
2022/11/24 01:50:03;;;;;;;18.10;3.47;;;7.70;99.90;;;8.17;100.00;97344.78;4993197;28;21219;-82
2022/11/24 01:52:42;;;;;;;19.60;3.57;;;7.70;99.90;;;8.17;100.00;97355.22;4996106;28;20542;-84
2022/11/24 01:55:20;;;;;;;14.33;3.33;;;7.60;99.90;;;8.18;100.00;97356.81;4996754;28;20956;-82
2022/11/24 01:58:00;;;;;;;14.13;2.40;;;7.70;99.90;;;8.21;100.00;97355.63;4989827;28;20466;-83
2022/11/24 02:00:34;;;;;;;19.23;2.87;;;7.80;99.90;;;8.21;100.00;97356.44;4989074;28;21246;-83
2022/11/24 02:03:04;;;;;;;7.23;2.70;;;7.80;99.90;;;8.22;100.00;97360.66;4991429;28;20573;-83
2022/11/24 02:05:43;;;;;;;12.00;2.53;;;7.90;99.90;;;8.26;100.00;97348.84;4993507;28;20554;-83
2022/11/24 02:08:23;;;;;;;18.63;4.20;;;7.80;99.90;;;8.24;100.00;97361.28;4991798;28;20508;-83
2022/11/24 02:10:52;;;;;;;20.03;2.70;;;7.80;99.90;;;8.27;100.00;97357.47;4993128;28;20578;-83
2022/11/24 02:13:23;;;;;;;25.40;3.20;;;7.90;99.90;;;8.29;100.00;97358.16;4992588;28;20888;-82
2022/11/24 02:15:55;;;;;;;20.33;2.80;;;7.90;99.90;;;8.32;100.00;97369.00;4990768;28;20891;-83
2022/11/24 02:18:26;;;;;;;12.53;2.83;;;7.90;99.90;;;8.33;100.00;97370.56;4995797;28;20494;-83
2022/11/24 02:20:55;;;;;;;18.70;3.00;;;7.90;99.90;;;8.36;100.00;97365.00;4991007;28;20466;-83
2022/11/24 02:23:38;;;;;;;18.70;3.23;;;8.00;99.90;;;8.35;100.00;97368.59;4991066;28;20977;-83
2022/11/24 02:26:17;;;;;;;10.03;2.97;;;7.90;99.90;;;8.38;100.00;97372.63;4989559;28;21031;-83
2022/11/24 02:28:50;;;;;;;14.07;3.17;;;8.00;99.90;;;8.37;100.00;97371.00;4990687;28;20478;-82
2022/11/24 02:31:20;;;;;;;25.47;2.40;;;7.90;99.90;;;8.38;100.00;97370.03;4990986;28;20477;-83
2022/11/24 02:33:51;;;;;;;19.40;3.70;;;8.00;99.90;;;8.39;100.00;97375.06;4991660;28;21229;-83
2022/11/24 02:36:21;;;;;;;30.90;3.80;;;8.00;99.90;;;8.41;100.00;97367.03;4988532;28;20500;-83
2022/11/24 02:38:51;;;;;;;20.97;3.60;;;8.00;99.90;;;8.40;100.00;97360.22;4994390;28;20518;-83
2022/11/24 02:41:25;;;;;;;13.53;2.73;;;8.10;99.90;;;8.37;100.00;97361.41;4996389;28;20547;-83
2022/11/24 02:43:59;;;;;;;17.30;2.80;;;7.90;99.90;;;8.38;100.00;97376.03;4996807;28;20459;-84
2022/11/24 02:46:29;;;;;;;18.73;3.50;;;7.90;99.90;;;8.40;100.00;97375.88;4992967;28;20468;-83
2022/11/24 02:48:59;;;;;;;23.33;3.63;;;7.90;99.90;;;8.40;100.00;97381.06;4995726;28;20501;-83
2022/11/24 02:51:29;;;;;;;20.23;4.20;;;7.90;99.90;;;8.45;100.00;97383.91;4992348;28;20541;-83
2022/11/24 02:53:58;;;;;;;20.43;3.83;;;8.00;99.90;;;8.41;100.00;97388.69;4995413;28;20560;-83
2022/11/24 02:56:27;;;;;;;20.63;2.70;;;8.00;99.90;;;8.43;100.00;97383.28;4995672;28;20462;-83
2022/11/24 02:58:57;;;;;;;17.67;3.10;;;8.00;99.90;;;8.45;100.00;97379.50;4995435;28;21017;-83
2022/11/24 03:01:26;;;;;;;14.20;2.87;;;8.00;99.90;;;8.44;100.00;97377.88;4993877;28;21026;-82
2022/11/24 03:03:56;;;;;;;16.17;2.93;;;8.00;99.90;;;8.45;100.00;97374.28;4997979;28;20542;-83
2022/11/24 03:06:26;;;;;;;20.57;3.70;;;8.00;99.90;;;8.46;100.00;97381.13;4993170;28;20459;-83
2022/11/24 03:08:56;;;;;;;16.67;2.97;;;8.00;99.90;;;8.46;100.00;97380.31;4995242;28;20598;-82
2022/11/24 03:11:25;;;;;;;8.20;2.30;;;8.10;99.90;;;8.47;100.00;97371.47;4994475;28;20554;-83
2022/11/24 03:13:56;;;;;;;18.23;3.50;;;8.10;99.90;;;8.44;100.00;97380.47;4994153;28;20551;-83
2022/11/24 03:16:26;;;;;;;16.53;3.00;;;8.00;99.90;;;8.40;100.00;97379.25;4996061;28;20522;-82
2022/11/24 03:18:55;;;;;;;31.03;3.50;;;8.00;99.90;;;8.44;100.00;97382.28;5000349;28;20917;-82
2022/11/24 03:21:24;;;;;;;22.73;3.50;;;8.00;99.90;;;8.45;100.00;97379.50;4994359;28;20488;-84
2022/11/24 03:23:55;;;;;;;29.63;4.33;;;8.00;99.90;;;8.44;100.00;97382.28;4997352;28;20467;-83
2022/11/24 03:26:25;;;;;;;12.43;2.80;;;8.10;99.90;;;8.42;100.00;97377.28;4994313;28;20556;-83
2022/11/24 03:28:56;;;;;;;13.30;3.10;;;8.00;99.90;;;8.43;100.00;97381.50;4998220;28;20486;-83
2022/11/24 03:31:26;;;;;;;20.10;3.27;;;8.00;99.90;;;8.40;100.00;97391.50;4996479;28;20498;-82
2022/11/24 03:33:56;;;;;;;17.60;3.00;;;8.00;99.90;;;8.40;100.00;97381.84;4994426;28;20546;-83
2022/11/24 03:36:26;;;;;;;33.23;3.53;;;8.00;99.90;;;8.39;100.00;97380.25;4992576;28;20471;-83
2022/11/24 03:38:55;;;;;;;20.40;3.20;;;8.00;99.90;;;8.36;100.00;97385.84;4989112;28;20456;-83
2022/11/24 03:41:25;;;;;;;32.83;3.90;;;7.90;99.90;;;8.34;100.00;97393.03;4994865;28;20471;-83
2022/11/24 03:43:55;;;;;;;12.87;3.30;;;7.80;99.90;;;8.36;100.00;97391.06;4993733;28;20470;-83
2022/11/24 03:46:26;;;;;;;20.03;3.33;;;7.90;99.90;;;8.41;100.00;97388.69;4999082;28;20603;-83
2022/11/24 03:48:56;;;;;;;17.53;3.33;;;8.00;99.90;;;8.33;100.00;97390.63;4998307;28;20491;-83
2022/11/24 03:51:26;;;;;;;17.20;3.60;;;8.00;99.90;;;8.36;100.00;97377.22;4996743;28;20497;-83
2022/11/24 03:53:56;;;;;;;16.37;2.67;;;8.00;99.90;;;8.36;100.00;97388.47;4996247;28;20583;-83
2022/11/24 03:56:25;;;;;;;27.00;3.97;;;7.90;99.90;;;8.38;100.00;97378.66;4996339;28;20988;-83
2022/11/24 03:58:56;;;;;;;20.73;3.50;;;8.00;99.90;;;8.38;100.00;97383.03;4999459;28;20502;-84
2022/11/24 04:01:26;;;;;;;25.90;3.60;;;7.90;99.90;;;8.39;100.00;97379.44;4998296;28;20567;-84
2022/11/24 04:03:56;;;;;;;14.13;2.50;;;7.90;99.90;;;8.40;100.00;97379.25;5001121;28;21036;-83
2022/11/24 04:06:26;;;;;;;24.97;3.33;;;7.90;99.90;;;8.39;100.00;97380.25;4997234;28;20475;-83
2022/11/24 04:08:56;;;;;;;11.23;2.33;;;8.00;99.90;;;8.38;100.00;97381.25;4997030;28;20527;-84
2022/11/24 04:14:17;;;;;;;15.00;3.20;;;8.00;99.90;;;8.43;100.00;97378.09;4993554;28;20466;-84
2022/11/24 04:16:46;;;;;;;13.97;3.00;;;8.00;99.90;;;8.39;100.00;97374.25;4995091;28;20496;-84
2022/11/24 04:19:16;;;;;;;24.73;3.63;;;7.90;99.90;;;8.42;100.00;97379.06;4996332;28;20459;-83
2022/11/24 04:21:46;;;;;;;26.17;3.20;;;8.00;99.90;;;8.39;100.00;97369.03;4992687;28;20472;-83
2022/11/24 04:24:15;;;;;;;16.23;2.60;;;8.00;99.90;;;8.38;100.00;97370.84;4994437;28;20569;-83
2022/11/24 04:26:45;;;;;;;26.90;3.63;;;7.90;99.90;;;8.41;100.00;97378.25;4991314;28;21043;-84
2022/11/24 04:29:17;;;;;;;12.90;2.87;;;8.00;99.90;;;8.41;100.00;97377.44;4994981;28;20594;-84
2022/11/24 04:31:47;;;;;;;18.73;3.37;;;8.00;99.90;;;8.44;100.00;97383.09;4992364;28;20508;-84
2022/11/24 04:34:16;;;;;;;15.07;2.77;;;8.00;99.90;;;8.44;100.00;97383.09;4998169;28;20493;-83
2022/11/24 04:36:46;;;;;;;10.33;3.10;;;8.00;99.90;;;8.44;100.00;97384.88;4993903;28;20474;-83
2022/11/24 04:39:14;;;;;;;8.40;2.90;;;8.10;99.90;;;8.42;100.00;97386.88;4995309;28;20474;-84
2022/11/24 04:41:54;;;;;;;17.10;4.40;;;8.00;99.90;;;8.43;100.00;97399.75;4995786;28;20495;-83
2022/11/24 04:44:24;;;;;;;22.03;5.13;;;8.00;99.90;;;8.45;100.00;97405.56;4993676;28;20991;-84
2022/11/24 04:46:54;;;;;;;15.70;3.13;;;8.00;99.90;;;8.44;100.00;97401.31;4996828;28;20467;-84
2022/11/24 04:49:23;;;;;;;18.50;2.77;;;8.00;99.90;;;8.43;100.00;97399.75;4996586;28;20499;-83
2022/11/24 04:51:54;;;;;;;11.40;2.80;;;7.90;99.90;;;8.49;100.00;97405.97;4998247;28;20491;-84
2022/11/24 04:54:23;;;;;;;10.27;2.70;;;8.10;99.90;;;8.48;100.00;97412.97;4995508;28;20491;-84
2022/11/24 04:56:54;;;;;;;14.47;2.60;;;8.10;99.90;;;8.48;100.00;97412.19;4997620;28;20950;-84
2022/11/24 04:59:25;;;;;;;12.13;2.03;;;8.10;99.90;;;8.49;100.00;97404.19;4996797;28;20496;-83
2022/11/24 05:01:54;;;;;;;7.20;2.00;;;8.10;99.90;;;8.51;100.00;97409.19;4997343;28;20476;-83
2022/11/24 05:04:24;;;;;;;16.53;2.90;;;8.00;99.90;;;8.52;100.00;97411.63;4995720;28;20965;-83
2022/11/24 05:06:54;;;;;;;15.47;2.30;;;8.10;99.90;;;8.52;100.00;97422.03;4995039;28;20464;-84
2022/11/24 05:09:24;;;;;;;8.97;3.00;;;8.10;99.90;;;8.54;100.00;97427.84;4994066;28;20545;-83
2022/11/24 05:12:14;;;;;;;9.30;2.27;;;8.10;99.90;;;8.51;100.00;97430.84;4994910;28;20460;-83
2022/11/24 05:14:45;;;;;;;12.27;3.40;;;8.10;99.90;;;8.51;100.00;97433.44;4993930;28;20578;-83
2022/11/24 05:17:15;;;;;;;8.23;2.70;;;8.10;99.90;;;8.51;100.00;97436.06;4993625;28;20462;-83
2022/11/24 05:19:44;;;;;;;6.13;2.00;;;8.10;99.90;;;8.50;100.00;97442.25;4995057;28;20538;-84
2022/11/24 05:22:13;;;;;;;2.90;1.80;;;8.10;99.90;;;8.51;100.00;97450.88;4994768;28;20494;-83
2022/11/24 05:24:43;;;;;;;11.57;1.70;;;8.10;99.90;;;8.52;100.00;97449.88;4995902;28;20525;-84
2022/11/24 05:27:12;;;;;;;4.40;1.43;;;8.10;99.90;;;8.51;100.00;97450.88;4996432;28;20506;-82
2022/11/24 05:29:43;;;;;;;8.23;2.10;;;8.10;99.90;;;8.48;100.00;97449.47;4995063;28;20501;-84
2022/11/24 05:32:13;;;;;;;8.13;2.20;;;8.10;99.90;;;8.50;100.00;97455.28;4994996;28;21225;-84
2022/11/24 05:34:43;;;;;;;3.90;1.63;;;8.00;99.90;;;8.50;100.00;97454.50;4994610;28;20558;-83
2022/11/24 05:37:13;;;;;;;3.27;1.23;;;8.00;99.90;;;8.50;100.00;97452.66;4994480;28;20467;-83
2022/11/24 05:39:42;;;;;;;4.60;1.80;;;8.00;99.90;;;8.47;100.00;97450.44;4994715;28;20975;-83
2022/11/24 05:45:00;;;;;;;6.67;1.43;;;7.90;99.90;;;8.48;100.00;97457.28;4993089;28;21373;-84
2022/11/24 05:47:30;;;;;;;6.70;1.77;;;8.00;99.90;;;8.49;100.00;97464.09;4993048;28;20996;-84
2022/11/24 05:49:59;;;;;;;8.97;2.00;;;8.00;99.90;;;8.50;100.00;97468.31;4991535;28;20901;-84
2022/11/24 05:52:28;;;;;;;7.67;2.03;;;8.10;99.90;;;8.48;100.00;97472.09;4993576;28;20498;-83
2022/11/24 05:54:58;;;;;;;7.57;1.83;;;8.10;99.90;;;8.46;100.00;97480.13;4994133;28;20558;-84
2022/11/24 05:57:27;;;;;;;6.23;1.80;;;8.10;99.90;;;8.42;100.00;97481.47;4994048;28;20467;-83
2022/11/24 05:59:59;;;;;;;7.53;1.93;;;7.90;99.90;;;8.42;100.00;97484.09;4995078;28;20475;-83
2022/11/24 06:02:29;;;;;;;9.43;1.70;;;7.90;99.90;;;8.43;100.00;97477.09;4991996;28;21025;-83
2022/11/24 06:04:59;;;;;;;6.00;1.60;;;8.00;99.90;;;8.43;100.00;97477.88;4993923;28;20872;-83
2022/11/24 06:07:28;;;;;;;5.13;1.40;;;8.00;99.90;;;8.46;100.00;97479.31;4992874;28;20562;-83
2022/11/24 06:09:57;;;;;;;7.93;1.83;;;8.00;99.90;;;8.44;100.00;97479.47;4994059;28;20498;-83
2022/11/24 06:12:26;;;;;;;7.43;2.03;;;7.90;99.90;;;8.45;100.00;97485.50;4989604;28;21568;-83
2022/11/24 06:14:56;;;;;;;18.33;2.30;;;7.90;99.90;;;8.46;100.00;97489.72;4994144;28;20468;-83
2022/11/24 06:17:26;;;;;;;4.93;2.00;;;7.90;99.90;;;8.46;100.00;97493.16;4998924;28;20964;-83
2022/11/24 06:19:56;;;;;;;11.90;1.57;;;8.00;99.90;;;8.47;100.00;97501.75;4996088;28;20463;-83
2022/11/24 06:22:25;;;;;;;9.33;1.80;;;7.90;99.90;;;8.47;100.00;97494.72;4996746;28;20518;-84
2022/11/24 06:24:54;;;;;;;3.50;1.30;;;8.00;99.90;;;8.45;100.00;97494.13;4996231;28;20472;-83
2022/11/24 06:27:24;;;;;;;10.10;2.57;;;7.90;99.90;;;8.43;100.00;97493.53;4994109;28;20826;-84
2022/11/24 06:29:54;;;;;;;4.70;1.93;;;8.00;99.90;;;8.46;100.00;97500.97;4993138;28;20470;-83
2022/11/24 06:32:24;;;;;;;7.93;2.40;;;8.00;99.90;;;8.44;100.00;97499.50;4997065;28;20504;-83
2022/11/24 06:34:54;;;;;;;18.13;2.10;;;8.00;99.90;;;8.42;100.00;97515.34;4993451;28;20467;-83
2022/11/24 06:37:23;;;;;;;5.27;2.00;;;8.00;99.90;;;8.42;100.00;97512.75;4995126;28;20496;-84
2022/11/24 06:39:52;;;;;;;5.63;1.80;;;7.90;99.90;;;8.43;100.00;97514.38;4995675;28;20470;-83
2022/11/24 06:42:21;;;;;;;13.10;2.50;;;7.90;99.90;;;8.45;100.00;97512.38;4996758;28;20885;-83
2022/11/24 06:45:22;;;;;;;8.10;2.03;;;8.00;99.90;;;8.45;100.00;97520.19;4997456;28;21408;-83
2022/11/24 06:47:54;;;;;;;8.57;2.40;;;7.90;99.90;;;8.45;100.00;97525.41;4995419;28;20548;-83
2022/11/24 06:50:25;;;;;;;6.67;2.07;;;7.90;99.90;;;8.45;100.00;97529.78;4996978;28;20478;-84
2022/11/24 06:53:02;;;;;;;10.03;2.53;;;7.90;99.90;;;8.48;100.00;97532.03;4999369;28;20525;-84
2022/11/24 06:55:32;;;;;;;8.03;1.60;;;8.00;99.90;;;8.45;100.00;97530.59;4995424;28;20645;-83
2022/11/24 06:58:01;;;;;;;12.33;2.10;;;8.00;99.90;;;8.47;100.00;97539.03;4995542;28;20472;-84
2022/11/24 07:00:31;;;;;;;9.43;1.90;;;8.00;99.90;;;8.50;100.00;97543.88;4994292;28;20472;-83
2022/11/24 07:03:01;;;;;;;10.90;2.33;;;8.00;99.90;;;8.50;100.00;97553.50;4994457;28;20557;-84
2022/11/24 07:05:31;;;;;;;13.60;2.00;;;8.10;99.90;;;8.49;100.00;97557.91;4994252;28;20672;-83
2022/11/24 07:08:00;;;;;;;53.87;19.00;;;8.10;99.90;;;8.48;100.00;97561.50;4994463;28;20540;-84
2022/11/24 07:10:33;;;;;;;12.10;3.03;;;8.00;99.90;;;8.49;100.00;97568.31;4997873;28;20910;-85
2022/11/24 07:13:03;;;;;;;13.20;2.47;;;8.10;99.90;;;8.50;100.00;97564.72;4996626;28;20844;-83
2022/11/24 07:15:33;;;;;;;9.00;2.20;;;8.10;99.90;;;8.51;100.00;97570.72;4989944;28;20506;-83
2022/11/24 07:18:03;;;;;;;12.40;2.40;;;8.10;99.90;;;8.49;100.00;97575.34;4991170;28;20477;-81
2022/11/24 07:20:35;;;;;;;13.93;3.17;;;8.00;99.90;;;8.50;100.00;97588.16;4994163;28;20459;-81
2022/11/24 07:23:05;;;;;;;12.83;2.40;;;8.00;99.90;;;8.49;100.00;97597.00;4991887;28;20506;-76
2022/11/24 07:25:35;;;;;;;14.73;4.33;;;8.00;99.90;;;8.47;100.00;97604.16;4993637;28;20532;-81
2022/11/24 07:28:05;;;;;;;17.67;3.07;;;8.00;99.90;;;8.51;100.00;97610.63;4991705;28;20467;-81
2022/11/24 07:30:35;;;;;;;20.60;2.80;;;8.10;99.90;;;8.50;100.00;97606.41;4996253;28;20501;-81
2022/11/24 07:33:04;;;;;;;13.77;2.70;;;8.10;99.90;;;8.48;100.00;97624.03;4997096;28;20547;-81
2022/11/24 07:35:35;;;;;;;10.57;2.73;;;8.00;99.90;;;8.48;100.00;97618.00;4998887;28;20468;-81
2022/11/24 07:38:04;;;;;;;27.87;2.80;;;7.90;99.90;;;8.48;100.00;97624.03;4997277;28;20510;-81
2022/11/24 07:40:34;;;;;;;7.27;2.27;;;7.90;99.90;;;8.51;100.00;97626.25;4994950;28;20992;-80
2022/11/24 07:43:03;;;;;;;20.50;3.47;;;7.90;99.90;;;8.52;100.00;97625.28;4998930;28;20467;-81
2022/11/24 07:45:32;;;;;;;10.57;2.40;;;7.90;99.90;;;8.54;100.00;97630.28;4996130;28;21192;-81
2022/11/24 07:48:03;;;;;;;9.57;2.40;;;7.90;99.90;;;8.54;100.00;97631.09;4997139;28;20459;-81
2022/11/24 07:50:35;;;;;;;10.73;2.37;;;8.00;99.90;;;8.54;100.00;97630.28;4994534;28;20484;-79
2022/11/24 07:53:04;;;;;;;11.10;2.20;;;8.00;99.90;;;8.54;100.00;97633.72;4993369;28;20474;-80
2022/11/24 07:55:33;;;;;;;17.87;2.90;;;8.00;99.90;;;8.54;100.00;97638.91;4994733;28;20555;-81
2022/11/24 07:58:03;;;;;;;10.20;1.70;;;8.00;99.90;;;8.54;100.00;97649.34;4991809;28;20505;-81
2022/11/24 08:00:32;;;;;;;11.07;2.37;;;8.00;99.90;;;8.57;100.00;97643.75;4993859;28;20459;-80
2022/11/24 08:03:01;;;;;;;7.77;2.03;;;8.10;99.90;;;8.54;100.00;97659.75;4990923;28;20526;-80
2022/11/24 08:05:31;;;;;;;10.33;1.97;;;8.10;99.90;;;8.55;100.00;97655.38;4990223;28;20570;-81
2022/11/24 08:08:02;;;;;;;5.17;1.70;;;8.00;99.90;;;8.57;100.00;97653.41;4995578;28;20497;-80
2022/11/24 08:10:31;;;;;;;11.93;2.33;;;8.10;99.90;;;8.57;100.00;97663.81;4999128;28;20468;-80
2022/11/24 08:13:01;;;;;;;14.00;2.20;;;8.10;99.90;;;8.59;100.00;97670.47;4998227;28;20495;-80
2022/11/24 08:15:31;;;;;;;7.43;2.20;;;8.10;99.90;;;8.64;100.00;97676.94;4999109;28;20547;-81
2022/11/24 08:18:03;;;;;;;3.37;1.53;;;8.20;99.90;;;8.64;100.00;97679.53;4997596;28;20459;-80
2022/11/24 08:20:32;;;;;;;7.40;1.93;;;8.20;99.90;;;8.64;100.00;97684.75;4996751;28;20463;-80
2022/11/24 08:23:02;;;;;;;6.30;2.13;;;8.10;99.90;;;8.65;100.00;97686.34;4995129;28;20557;-80
2022/11/24 08:25:32;;;;;;;7.53;2.00;;;8.20;99.90;;;8.69;100.00;97695.41;4995409;28;20524;-80
2022/11/24 08:28:03;;;;;;;7.27;2.17;;;8.20;99.90;;;8.72;100.00;97697.66;4997040;28;20467;-80
2022/11/24 08:30:33;;;;;;;6.20;1.70;;;8.20;99.90;;;8.70;100.00;97702.25;4991446;28;20956;-80
2022/11/24 08:33:03;;;;;;;4.80;1.70;;;8.20;99.90;;;8.73;100.00;97697.47;4991855;28;20497;-80
2022/11/24 08:35:36;;;;;;;7.60;1.50;;;8.30;99.90;;;8.76;100.00;97693.69;4993272;28;20462;-78
2022/11/24 08:38:07;;;;;;;10.63;2.00;;;8.30;99.90;;;8.76;100.00;97694.50;4989309;28;20514;-80
2022/11/24 08:40:36;;;;;;;10.03;2.33;;;8.30;99.90;;;8.78;100.00;97699.53;4987713;28;21028;-80
2022/11/24 08:43:04;;;;;;;13.27;2.23;;;8.30;99.90;;;8.80;100.00;97698.34;4994031;28;20468;-80
2022/11/24 08:45:33;;;;;;;9.63;2.03;;;8.30;99.90;;;8.83;100.00;97710.22;4997961;28;20502;-80
2022/11/24 08:48:09;;;;;;;4.90;1.70;;;8.40;99.90;;;8.82;100.00;97701.56;4991753;28;20542;-80
2022/11/24 08:50:39;;;;;;;5.33;1.77;;;8.30;99.90;;;8.83;100.00;97710.22;4989665;28;20472;-81
2022/11/24 08:53:09;;;;;;;6.67;1.90;;;8.30;99.90;;;8.84;100.00;97709.22;4992244;28;20585;-80
2022/11/24 08:55:39;;;;;;;11.60;2.10;;;8.40;99.90;;;8.86;100.00;97715.88;4993454;28;20476;-80
2022/11/24 08:58:08;;;;;;;10.03;1.80;;;8.40;99.90;;;8.86;100.00;97713.25;4991796;28;20463;-80
2022/11/24 09:00:38;;;;;;;9.87;2.17;;;8.40;99.90;;;8.91;100.00;97717.94;4991421;28;20982;-80
2022/11/24 09:03:10;;;;;;;16.40;3.10;;;8.50;99.90;;;8.95;100.00;97708.75;4986884;28;20916;-80
2022/11/24 09:05:40;;;;;;;6.43;1.77;;;8.50;99.90;;;8.96;100.00;97721.59;4987854;28;20555;-80
2022/11/24 09:08:22;;;;;;;12.37;2.20;;;8.50;99.90;;;8.98;100.00;97710.97;4993173;28;20571;-79
2022/11/24 09:10:52;;;;;;;4.17;1.70;;;8.50;99.90;;;9.03;100.00;97713.81;4992130;28;20456;-80
2022/11/24 09:13:21;;;;;;;4.63;1.57;;;8.60;99.90;;;9.05;100.00;97719.69;4991876;28;20598;-80
2022/11/24 09:15:51;;;;;;;9.27;2.40;;;8.60;99.90;;;9.06;100.00;97723.88;4990275;28;20472;-79
2022/11/24 09:18:20;;;;;;;6.73;1.50;;;8.60;99.90;;;9.03;100.00;97722.47;4990936;28;20524;-79
2022/11/24 09:20:57;;;;;;;11.67;2.10;;;8.60;99.90;;;9.05;100.00;97733.53;4987596;28;21107;-79
2022/11/24 09:23:27;;;;;;;7.37;1.80;;;8.60;99.90;;;9.06;100.00;97742.13;4992579;28;20486;-79
2022/11/24 09:26:05;;;;;;;5.53;2.23;;;8.60;99.90;;;9.11;100.00;97734.59;4991201;28;20586;-79
2022/11/24 09:28:34;;;;;;;7.73;1.70;;;8.70;99.90;;;9.12;100.00;97745.81;4987446;28;20534;-80
2022/11/24 09:31:04;;;;;;;42.60;8.67;;;8.60;99.90;;;9.15;100.00;97735.84;4988651;28;20468;-79
2022/11/24 09:33:35;;;;;;;9.10;2.47;;;8.70;99.90;;;9.18;100.00;97751.09;4990737;28;20585;-79
2022/11/24 09:36:04;;;;;;;4.70;1.50;;;8.70;99.90;;;9.23;100.00;97748.75;4989425;28;20463;-79
2022/11/24 09:38:35;;;;;;;8.67;1.97;;;8.80;99.90;;;9.25;100.00;97757.19;4994425;28;20489;-79
2022/11/24 09:41:56;;;;;;;11.77;2.27;;;8.80;99.90;;;9.31;100.00;97750.41;4990978;28;20468;-79
2022/11/24 09:45:08;;;;;;;15.87;3.70;;;8.90;99.90;;;9.35;100.00;97755.09;4990325;28;20558;-79
2022/11/24 09:47:51;;;;;;;5.80;1.60;;;9.00;99.90;;;9.36;100.00;97764.53;4989387;28;21387;-80
2022/11/24 09:50:24;;;;;;;10.67;2.30;;;8.90;99.90;;;9.39;100.00;97760.75;4991314;28;20463;-79
2022/11/24 09:53:02;;;;;;;11.60;2.63;;;9.00;99.90;;;9.45;100.00;97766.03;4994674;28;20503;-79
2022/11/24 09:55:43;;;;;;;22.73;3.07;;;9.10;99.90;;;9.48;100.00;97764.84;4991936;28;20459;-79
2022/11/24 09:58:30;;;;;;;9.13;2.07;;;9.10;99.90;;;9.51;100.00;97778.31;4989132;28;20464;-80
2022/11/24 10:01:00;;;;;;;7.83;2.13;;;9.10;99.90;;;9.54;100.00;97785.78;4990932;28;20467;-79
2022/11/24 10:03:38;;;;;;;9.37;2.03;;;9.10;99.90;;;9.58;100.00;97784.41;4991341;28;20479;-80
2022/11/24 10:06:26;;;;;;;7.63;1.87;;;9.20;99.90;;;9.61;100.00;97786.63;4989278;28;20472;-79
2022/11/24 10:09:23;;;;;;;8.00;1.90;;;9.20;99.90;;;9.64;100.00;97795.13;4989368;28;20586;-79
2022/11/24 10:12:06;;;;;;;9.43;1.93;;;9.10;99.90;;;9.64;100.00;97789.88;4988688;28;21021;-79
2022/11/24 10:15:37;;;;;;;10.73;2.33;;;9.20;99.90;;;9.69;100.00;97798.75;4991925;28;20529;-79
2022/11/24 10:18:55;;;;;;;9.50;1.87;;;9.30;99.90;;;9.71;100.00;97795.97;4989572;28;20471;-79
2022/11/24 10:21:59;;;;;;;6.33;1.93;;;9.30;99.90;;;9.74;100.00;97793.81;4992140;28;20467;-79
2022/11/24 10:24:59;;;;;;;22.57;2.10;;;9.30;99.90;;;9.77;100.00;97803.06;4992620;28;20516;-80
2022/11/24 10:27:38;;;;;;;12.60;2.00;;;9.30;99.90;;;9.79;100.00;97795.84;4992544;28;20555;-79
2022/11/24 10:30:17;;;;;;;5.10;1.93;;;9.30;99.90;;;9.78;100.00;97805.50;4990936;28;20978;-80
2022/11/24 10:32:52;;;;;;;8.50;1.77;;;9.30;99.90;;;9.81;100.00;97802.50;4988193;28;21211;-80
2022/11/24 10:35:28;;;;;;;9.97;2.10;;;9.40;99.90;;;9.83;100.00;97797.88;4991188;28;20463;-79
2022/11/24 10:38:14;;;;;;;11.30;2.50;;;9.30;99.90;;;9.89;100.00;97798.94;4991127;28;21272;-80
2022/11/24 10:40:48;;;;;;;5.57;2.20;;;9.50;99.90;;;9.93;100.00;97797.56;4992059;28;20459;-79
2022/11/24 10:43:29;;;;;;;6.17;2.17;;;9.50;99.90;;;9.95;100.00;97798.19;4990636;28;20478;-79
2022/11/24 10:46:10;;;;;;;21.10;3.70;;;9.50;99.90;;;9.93;100.00;97808.00;4992519;28;20541;-79
2022/11/24 10:48:47;;;;;;;9.87;1.77;;;9.50;99.90;;;9.93;100.00;97805.38;4990108;28;20514;-80
2022/11/24 10:52:04;;;;;;;8.20;2.00;;;9.50;99.90;;;9.97;100.00;97811.84;4990186;28;20941;-80
2022/11/24 10:54:34;;;;;;;6.27;1.80;;;9.50;99.90;;;9.97;100.00;97824.91;4989465;28;20521;-80